Time;durP1;ratioP1;P1;durP2;ratioP2;P2;SDS_P1;SDS_P2;PMS_P1;PMS_P2;Temp;Humidity;BMP_temperature;BMP_pressure;BME280_temperature;BME280_humidity;BME280_pressure;Samples;Min_cycle;Max_cycle;Signal;HPM_P1;HPM_P2
2022/08/06 00:01:38;;;;;;;4.90;2.10;;;;;;;;;;6180896;28;20047;-68
2022/08/06 00:04:40;;;;;;;4.72;1.63;;;;;;;;;;6180546;28;20069;-69
2022/08/06 00:07:43;;;;;;;2.67;1.85;;;;;;;;;;6185113;28;20051;-68
2022/08/06 00:10:45;;;;;;;3.25;1.80;;;;;;;;;;6183825;28;20096;-68
2022/08/06 00:13:46;;;;;;;2.90;1.67;;;;;;;;;;6183245;28;20051;-69
2022/08/06 00:16:48;;;;;;;4.53;2.60;;;;;;;;;;6181967;28;20050;-68
2022/08/06 00:19:50;;;;;;;5.07;1.95;;;;;;;;;;6185382;28;20063;-68
2022/08/06 00:22:53;;;;;;;2.55;1.73;;;;;;;;;;6192540;28;20054;-69
2022/08/06 00:25:55;;;;;;;5.82;1.95;;;;;;;;;;6187748;28;20059;-69
2022/08/06 00:28:57;;;;;;;4.87;1.97;;;;;;;;;;6191459;28;20050;-69
2022/08/06 00:31:58;;;;;;;2.47;1.97;;;;;;;;;;6191372;28;20852;-70
2022/08/06 00:35:00;;;;;;;5.30;2.00;;;;;;;;;;6195300;28;20054;-68
2022/08/06 00:38:03;;;;;;;5.20;2.17;;;;;;;;;;6188220;28;20089;-69
2022/08/06 00:41:05;;;;;;;5.97;2.20;;;;;;;;;;6190521;28;20050;-68
2022/08/06 00:44:06;;;;;;;3.03;2.20;;;;;;;;;;6189690;28;20058;-68
2022/08/06 00:47:08;;;;;;;6.30;2.42;;;;;;;;;;6187582;28;20051;-69
2022/08/06 00:50:10;;;;;;;3.47;2.28;;;;;;;;;;6190929;28;20356;-68
2022/08/06 00:53:13;;;;;;;5.40;2.57;;;;;;;;;;6188491;28;20054;-68
2022/08/06 00:56:15;;;;;;;3.67;2.20;;;;;;;;;;6188753;28;20047;-72
2022/08/06 00:59:17;;;;;;;5.15;2.17;;;;;;;;;;6190624;28;20059;-68
2022/08/06 01:02:18;;;;;;;3.75;2.75;;;;;;;;;;6190810;28;20054;-68
2022/08/06 01:05:20;;;;;;;8.63;3.30;;;;;;;;;;6186664;28;20042;-68
2022/08/06 01:08:23;;;;;;;4.22;3.03;;;;;;;;;;6190706;28;20058;-68
2022/08/06 01:11:25;;;;;;;4.95;3.47;;;;;;;;;;6190900;28;20062;-67
2022/08/06 01:14:27;;;;;;;5.63;3.00;;;;;;;;;;6192667;28;20062;-68
2022/08/06 01:17:31;;;;;;;9.10;4.00;;;;;;;;;;6189331;28;20050;-68
2022/08/06 01:20:45;;;;;;;7.10;3.80;;;;;;;;;;6188083;28;20046;-68
2022/08/06 01:24:06;;;;;;;5.43;4.10;;;;;;;;;;6192073;28;20233;-71
2022/08/06 01:27:31;;;;;;;7.18;4.32;;;;;;;;;;6188230;28;20065;-68
2022/08/06 01:30:35;;;;;;;5.68;4.68;;;;;;;;;;6186905;28;20053;-67
2022/08/06 01:33:40;;;;;;;7.20;4.90;;;;;;;;;;6187965;28;20050;-68
2022/08/06 01:36:43;;;;;;;11.40;5.90;;;;;;;;;;6186039;28;20069;-69
2022/08/06 01:39:47;;;;;;;6.90;5.00;;;;;;;;;;6184833;28;20337;-69
2022/08/06 01:42:52;;;;;;;9.57;5.90;;;;;;;;;;6183583;28;20050;-68
2022/08/06 01:45:55;;;;;;;8.75;6.25;;;;;;;;;;6183396;28;20042;-69
2022/08/06 01:48:58;;;;;;;7.38;5.40;;;;;;;;;;6185725;28;20054;-71
2022/08/06 01:52:01;;;;;;;8.75;6.13;;;;;;;;;;6184365;28;20055;-68
2022/08/06 01:55:02;;;;;;;;;;;;;;;;;;6185555;28;20054;-69
2022/08/06 01:58:06;;;;;;;9.15;6.18;;;;;;;;;;6185240;28;19965;-68
2022/08/06 02:01:12;;;;;;;7.80;5.90;;;;;;;;;;6182032;28;20078;-69
2022/08/06 02:04:14;;;;;;;7.13;6.20;;;;;;;;;;6181329;28;20055;-68
2022/08/06 02:07:17;;;;;;;7.50;6.70;;;;;;;;;;6192772;28;20101;-69
2022/08/06 02:10:20;;;;;;;10.07;8.25;;;;;;;;;;6188542;28;20054;-67
2022/08/06 02:13:24;;;;;;;11.45;6.57;;;;;;;;;;6184957;28;20046;-68
2022/08/06 02:16:27;;;;;;;7.97;7.15;;;;;;;;;;6184093;28;20047;-68
2022/08/06 02:19:28;;;;;;;;;;;;;;;;;;6182169;28;20038;-68
2022/08/06 02:22:33;;;;;;;8.48;6.68;;;;;;;;;;6184092;28;19968;-68
2022/08/06 02:25:36;;;;;;;8.52;6.47;;;;;;;;;;6182674;28;20105;-68
2022/08/06 02:28:40;;;;;;;9.68;6.53;;;;;;;;;;6188168;28;20082;-68
2022/08/06 02:31:42;;;;;;;7.53;6.10;;;;;;;;;;6186469;28;20054;-68
2022/08/06 02:34:44;;;;;;;8.07;7.27;;;;;;;;;;6182823;28;20244;-69
2022/08/06 02:37:50;;;;;;;8.40;6.38;;;;;;;;;;6186898;28;20261;-68
2022/08/06 02:40:56;;;;;;;8.85;7.80;;;;;;;;;;6189972;28;20058;-68
2022/08/06 02:44:03;;;;;;;14.77;7.88;;;;;;;;;;6187428;28;20051;-69
2022/08/06 02:47:08;;;;;;;10.27;7.55;;;;;;;;;;6186722;28;20234;-68
2022/08/06 02:50:11;;;;;;;11.77;7.32;;;;;;;;;;6188389;28;20062;-68
2022/08/06 02:53:15;;;;;;;;;;;;;;;;;;6189170;28;20051;-67
2022/08/06 02:56:17;;;;;;;8.07;6.47;;;;;;;;;;6188433;28;19930;-68
2022/08/06 02:59:28;;;;;;;10.37;6.40;;;;;;;;;;6189438;28;20058;-67
2022/08/06 03:02:31;;;;;;;8.10;6.78;;;;;;;;;;6183204;28;20050;-68
2022/08/06 03:05:32;;;;;;;12.98;8.00;;;;;;;;;;6183099;28;20058;-68
2022/08/06 03:08:36;;;;;;;8.52;7.63;;;;;;;;;;6183417;28;20059;-68
2022/08/06 03:11:38;;;;;;;8.50;6.95;;;;;;;;;;6180631;28;20357;-68
2022/08/06 03:14:41;;;;;;;8.30;7.22;;;;;;;;;;6184271;28;20060;-69
2022/08/06 03:17:44;;;;;;;8.40;6.88;;;;;;;;;;6183463;28;20257;-68
2022/08/06 03:20:46;;;;;;;8.63;6.45;;;;;;;;;;6182053;28;20054;-68
2022/08/06 03:23:48;;;;;;;8.38;6.15;;;;;;;;;;6182290;28;20046;-69
2022/08/06 03:26:50;;;;;;;6.25;5.20;;;;;;;;;;6181438;28;20241;-68
2022/08/06 03:29:54;;;;;;;8.60;7.20;;;;;;;;;;6181515;28;20065;-68
2022/08/06 03:32:56;;;;;;;7.82;5.55;;;;;;;;;;6182938;28;20098;-68
2022/08/06 03:36:01;;;;;;;9.25;5.10;;;;;;;;;;6183074;28;20047;-68
2022/08/06 03:39:07;;;;;;;6.40;5.28;;;;;;;;;;6181765;28;20349;-68
2022/08/06 03:42:09;;;;;;;6.60;5.85;;;;;;;;;;6181315;28;20329;-68
2022/08/06 03:45:12;;;;;;;6.85;5.22;;;;;;;;;;6182147;28;20062;-67
2022/08/06 03:48:17;;;;;;;8.10;6.03;;;;;;;;;;6182793;28;20061;-67
2022/08/06 03:51:22;;;;;;;8.45;5.88;;;;;;;;;;6182909;28;20054;-68
2022/08/06 03:54:26;;;;;;;7.93;5.43;;;;;;;;;;6181986;28;20047;-69
2022/08/06 03:57:33;;;;;;;10.05;5.78;;;;;;;;;;6181033;28;20051;-69
2022/08/06 04:00:40;;;;;;;7.20;5.15;;;;;;;;;;6183109;28;20050;-70
2022/08/06 04:03:42;;;;;;;8.45;5.82;;;;;;;;;;6181925;28;20050;-69
2022/08/06 04:06:45;;;;;;;8.00;5.45;;;;;;;;;;6181577;28;20097;-69
2022/08/06 04:09:47;;;;;;;7.45;5.65;;;;;;;;;;6183905;28;20043;-70
2022/08/06 04:12:49;;;;;;;7.97;5.63;;;;;;;;;;6184158;28;20062;-70
2022/08/06 04:15:53;;;;;;;6.78;4.60;;;;;;;;;;6184130;28;20058;-69
2022/08/06 04:18:55;;;;;;;5.50;4.53;;;;;;;;;;6181384;28;20329;-70
2022/08/06 04:21:57;;;;;;;10.02;5.40;;;;;;;;;;6182517;28;20101;-69
2022/08/06 04:24:58;;;;;;;6.82;5.05;;;;;;;;;;6181796;28;20073;-71
2022/08/06 04:28:00;;;;;;;7.85;5.65;;;;;;;;;;6185591;28;20051;-69
2022/08/06 04:31:04;;;;;;;8.60;5.93;;;;;;;;;;6184085;28;20050;-69
2022/08/06 04:34:07;;;;;;;6.03;5.43;;;;;;;;;;6181600;28;20058;-70
2022/08/06 04:37:08;;;;;;;8.75;5.13;;;;;;;;;;6181706;28;20143;-69
2022/08/06 04:40:11;;;;;;;6.97;5.30;;;;;;;;;;6181259;28;20058;-68
2022/08/06 04:43:13;;;;;;;;;;;;;;;;;;6182978;28;20374;-69
2022/08/06 04:46:16;;;;;;;6.25;4.85;;;;;;;;;;6180870;28;21193;-68
2022/08/06 04:49:18;;;;;;;7.38;5.10;;;;;;;;;;6180470;28;20050;-69
2022/08/06 04:52:22;;;;;;;6.75;4.85;;;;;;;;;;6181719;28;20054;-69
2022/08/06 04:55:24;;;;;;;7.28;4.97;;;;;;;;;;6179589;28;20219;-69
2022/08/06 04:58:26;;;;;;;7.05;4.68;;;;;;;;;;6180390;28;20249;-70
2022/08/06 05:01:29;;;;;;;8.10;5.10;;;;;;;;;;6180933;28;20050;-69
2022/08/06 05:04:30;;;;;;;5.50;4.38;;;;;;;;;;6180208;28;20058;-70
2022/08/06 05:07:34;;;;;;;9.07;4.95;;;;;;;;;;6182679;28;20058;-68
2022/08/06 05:10:44;;;;;;;10.32;4.55;;;;;;;;;;6184255;28;20106;-69
2022/08/06 05:13:47;;;;;;;7.93;4.78;;;;;;;;;;6186142;28;20058;-70
2022/08/06 05:16:51;;;;;;;7.35;4.32;;;;;;;;;;6184937;28;20387;-69
2022/08/06 05:20:00;;;;;;;6.72;4.20;;;;;;;;;;6184282;28;20047;-72
2022/08/06 05:23:05;;;;;;;4.90;4.07;;;;;;;;;;6184404;28;20058;-70
2022/08/06 05:26:07;;;;;;;8.88;4.07;;;;;;;;;;6184295;28;20070;-69
2022/08/06 05:29:10;;;;;;;9.57;3.90;;;;;;;;;;6182690;28;20207;-69
2022/08/06 05:32:13;;;;;;;5.97;3.67;;;;;;;;;;6182059;28;20384;-72
2022/08/06 05:35:15;;;;;;;4.70;2.90;;;;;;;;;;6186485;28;20066;-69
2022/08/06 05:38:16;;;;;;;4.90;2.78;;;;;;;;;;6184466;28;20058;-71
2022/08/06 05:41:19;;;;;;;5.10;3.03;;;;;;;;;;6184499;28;20097;-69
2022/08/06 05:44:21;;;;;;;8.85;2.85;;;;;;;;;;6181633;28;20344;-69
2022/08/06 05:47:25;;;;;;;5.28;3.05;;;;;;;;;;6183043;28;20055;-69
2022/08/06 05:50:31;;;;;;;5.78;3.05;;;;;;;;;;6184185;28;20338;-69
2022/08/06 05:53:36;;;;;;;6.50;3.20;;;;;;;;;;6183653;28;20122;-70
2022/08/06 05:56:41;;;;;;;4.32;3.00;;;;;;;;;;6184055;28;20047;-68
2022/08/06 05:59:50;;;;;;;6.90;3.17;;;;;;;;;;6184408;28;20054;-68
2022/08/06 06:02:56;;;;;;;5.43;3.10;;;;;;;;;;6184376;28;20058;-68
2022/08/06 06:05:59;;;;;;;8.00;3.60;;;;;;;;;;6182179;28;20051;-68
2022/08/06 06:09:01;;;;;;;3.88;2.97;;;;;;;;;;6184125;28;20349;-68
2022/08/06 06:12:04;;;;;;;3.80;3.15;;;;;;;;;;6180742;28;20983;-68
2022/08/06 06:15:07;;;;;;;4.88;2.90;;;;;;;;;;6184434;28;20054;-70
2022/08/06 06:18:11;;;;;;;;;;;;;;;;;;6184385;28;20048;-68
2022/08/06 06:21:19;;;;;;;3.88;2.80;;;;;;;;;;6183063;28;20116;-69
2022/08/06 06:24:26;;;;;;;3.53;2.97;;;;;;;;;;6182561;28;20058;-69
2022/08/06 06:27:37;;;;;;;4.32;2.70;;;;;;;;;;6181914;28;20337;-67
2022/08/06 06:30:44;;;;;;;5.45;3.00;;;;;;;;;;6183742;28;20101;-68
2022/08/06 06:33:50;;;;;;;6.82;2.50;;;;;;;;;;6186408;28;20065;-69
2022/08/06 06:36:55;;;;;;;4.95;2.75;;;;;;;;;;6183414;28;20059;-68
2022/08/06 06:40:08;;;;;;;6.13;2.58;;;;;;;;;;6182852;28;20098;-69
2022/08/06 06:43:21;;;;;;;6.20;2.67;;;;;;;;;;6183333;28;20054;-68
2022/08/06 06:46:27;;;;;;;4.57;2.67;;;;;;;;;;6184745;28;20518;-69
2022/08/06 06:49:35;;;;;;;3.10;2.60;;;;;;;;;;6183127;28;20058;-68
2022/08/06 06:52:39;;;;;;;4.65;2.67;;;;;;;;;;6183872;28;20332;-69
2022/08/06 06:55:44;;;;;;;2.90;2.53;;;;;;;;;;6181117;28;20058;-70
2022/08/06 06:58:49;;;;;;;4.55;2.75;;;;;;;;;;6182879;28;20055;-68
2022/08/06 07:01:52;;;;;;;4.70;2.33;;;;;;;;;;6181418;28;20053;-71
2022/08/06 07:04:56;;;;;;;2.95;2.42;;;;;;;;;;6183347;28;20054;-68
2022/08/06 07:07:59;;;;;;;2.90;2.47;;;;;;;;;;6183363;28;20042;-69
2022/08/06 07:11:01;;;;;;;4.55;2.38;;;;;;;;;;6181357;28;20051;-69
2022/08/06 07:14:03;;;;;;;;;;;;;;;;;;6182790;28;20094;-69
2022/08/06 07:17:06;;;;;;;2.13;1.77;;;;;;;;;;6181538;28;19977;-69
2022/08/06 07:20:11;;;;;;;3.03;2.38;;;;;;;;;;6183429;28;20531;-68
2022/08/06 07:23:16;;;;;;;3.00;2.25;;;;;;;;;;6182301;28;20108;-69
2022/08/06 07:26:19;;;;;;;4.05;2.40;;;;;;;;;;6181352;28;20070;-69
2022/08/06 07:29:21;;;;;;;3.35;2.30;;;;;;;;;;6181484;28;20265;-72
2022/08/06 07:32:24;;;;;;;3.83;2.13;;;;;;;;;;6181847;28;20070;-69
2022/08/06 07:35:27;;;;;;;3.10;2.00;;;;;;;;;;6184847;28;20390;-72
2022/08/06 07:38:29;;;;;;;4.05;2.10;;;;;;;;;;6184323;28;20050;-69
2022/08/06 07:41:31;;;;;;;;;;;;;;;;;;6181735;28;20055;-69
2022/08/06 07:44:36;;;;;;;2.13;1.88;;;;;;;;;;6182805;28;19918;-69
2022/08/06 07:47:40;;;;;;;3.65;1.90;;;;;;;;;;6181337;28;20417;-68
2022/08/06 07:50:45;;;;;;;1.95;1.85;;;;;;;;;;6181477;28;20046;-69
2022/08/06 07:53:47;;;;;;;2.58;1.95;;;;;;;;;;6179484;28;20391;-68
2022/08/06 07:56:49;;;;;;;3.00;2.00;;;;;;;;;;6181874;28;20062;-70
2022/08/06 07:59:51;;;;;;;5.03;2.10;;;;;;;;;;6180900;28;20050;-70
2022/08/06 08:06:23;;;;;;;2.33;1.90;;;;;;;;;;6182470;28;20058;-71
2022/08/06 08:09:26;;;;;;;3.78;2.50;;;;;;;;;;6179414;28;20047;-69
2022/08/06 08:12:27;;;;;;;6.05;2.67;;;;;;;;;;6180107;28;20053;-69
2022/08/06 08:15:31;;;;;;;2.55;2.35;;;;;;;;;;6182228;28;20050;-69
2022/08/06 08:18:33;;;;;;;4.13;2.58;;;;;;;;;;6184059;28;20054;-69
2022/08/06 08:21:36;;;;;;;4.10;3.20;;;;;;;;;;6181440;28;20352;-69
2022/08/06 08:24:39;;;;;;;6.28;3.15;;;;;;;;;;6182254;28;20238;-69
2022/08/06 08:27:40;;;;;;;4.97;2.63;;;;;;;;;;6183244;28;20042;-69
2022/08/06 08:30:43;;;;;;;3.28;2.97;;;;;;;;;;6182921;28;20065;-69
2022/08/06 08:33:47;;;;;;;5.47;3.05;;;;;;;;;;6183051;28;20314;-69
2022/08/06 08:36:51;;;;;;;3.20;2.90;;;;;;;;;;6182041;28;20354;-71
2022/08/06 08:39:52;;;;;;;4.35;3.20;;;;;;;;;;6182004;28;20050;-69
2022/08/06 08:42:57;;;;;;;4.25;3.10;;;;;;;;;;6185670;28;20058;-69
2022/08/06 08:46:02;;;;;;;3.95;3.05;;;;;;;;;;6184694;28;20232;-69
2022/08/06 08:49:05;;;;;;;4.57;3.20;;;;;;;;;;6184509;28;20110;-71
2022/08/06 08:52:14;;;;;;;4.00;3.33;;;;;;;;;;6186298;28;20049;-69
2022/08/06 08:55:17;;;;;;;4.75;3.50;;;;;;;;;;6185911;28;20058;-69
2022/08/06 08:58:19;;;;;;;4.60;3.50;;;;;;;;;;6186588;28;20109;-69
2022/08/06 09:01:21;;;;;;;;;;;;;;;;;;6185218;28;20047;-69
2022/08/06 09:04:22;;;;;;;5.88;3.83;;;;;;;;;;6186080;28;20145;-69
2022/08/06 09:07:26;;;;;;;7.55;3.65;;;;;;;;;;6185134;28;20109;-69
2022/08/06 09:10:28;;;;;;;4.15;3.75;;;;;;;;;;6188198;28;20066;-70
2022/08/06 09:13:30;;;;;;;4.03;3.22;;;;;;;;;;6186630;28;20059;-70
2022/08/06 09:16:32;;;;;;;4.93;3.53;;;;;;;;;;6185595;28;20043;-69
2022/08/06 09:19:34;;;;;;;5.10;3.85;;;;;;;;;;6184840;28;20226;-69
2022/08/06 09:22:37;;;;;;;4.75;3.92;;;;;;;;;;6185062;28;20097;-69
2022/08/06 09:25:41;;;;;;;6.13;4.22;;;;;;;;;;6184125;28;20058;-69
2022/08/06 09:28:44;;;;;;;6.30;4.38;;;;;;;;;;6184128;28;20055;-69
2022/08/06 09:31:46;;;;;;;6.88;4.32;;;;;;;;;;6186546;28;20054;-69
2022/08/06 09:34:47;;;;;;;7.55;4.65;;;;;;;;;;6184193;28;20063;-69
2022/08/06 09:38:00;;;;;;;6.28;4.45;;;;;;;;;;6183423;28;20049;-69
2022/08/06 09:41:06;;;;;;;6.25;4.70;;;;;;;;;;6184775;28;20418;-69
2022/08/06 09:44:11;;;;;;;5.07;4.18;;;;;;;;;;6184573;28;20058;-69
2022/08/06 09:47:21;;;;;;;6.13;4.15;;;;;;;;;;6184205;28;20054;-69
2022/08/06 09:50:36;;;;;;;5.32;3.88;;;;;;;;;;6184138;28;20292;-70
2022/08/06 09:53:52;;;;;;;5.25;4.00;;;;;;;;;;6181725;28;20078;-69
2022/08/06 09:56:58;;;;;;;6.03;4.07;;;;;;;;;;6184178;28;20053;-70
2022/08/06 09:59:59;;;;;;;6.18;3.97;;;;;;;;;;6182133;28;20054;-69
2022/08/06 10:03:02;;;;;;;;;;;;;;;;;;6182854;28;20046;-70
2022/08/06 10:06:06;;;;;;;4.43;3.80;;;;;;;;;;6182966;28;19926;-70
2022/08/06 10:09:10;;;;;;;3.65;3.25;;;;;;;;;;6183943;28;20059;-69
2022/08/06 10:12:19;;;;;;;4.65;3.58;;;;;;;;;;6183303;28;20055;-69
2022/08/06 10:15:29;;;;;;;4.65;3.40;;;;;;;;;;6185100;28;20057;-70
2022/08/06 10:18:34;;;;;;;5.40;3.60;;;;;;;;;;6184350;28;20061;-70
2022/08/06 10:21:35;;;;;;;5.72;3.60;;;;;;;;;;6183704;28;20046;-72
2022/08/06 10:24:41;;;;;;;4.50;3.53;;;;;;;;;;6186336;28;20058;-70
2022/08/06 10:27:44;;;;;;;4.65;3.72;;;;;;;;;;6184932;28;20053;-69
2022/08/06 10:30:46;;;;;;;6.10;3.85;;;;;;;;;;6187072;28;20050;-70
2022/08/06 10:33:52;;;;;;;6.22;3.13;;;;;;;;;;6189549;28;20054;-70
2022/08/06 10:36:56;;;;;;;9.43;3.42;;;;;;;;;;6189759;28;20054;-69
2022/08/06 10:40:00;;;;;;;3.90;3.38;;;;;;;;;;6188997;28;20241;-70
2022/08/06 10:43:04;;;;;;;6.15;3.78;;;;;;;;;;6191049;28;20050;-69
2022/08/06 10:46:07;;;;;;;5.97;3.63;;;;;;;;;;6188611;28;20357;-69
2022/08/06 10:49:09;;;;;;;3.90;3.60;;;;;;;;;;6189778;28;20115;-70
2022/08/06 10:52:12;;;;;;;6.03;3.67;;;;;;;;;;6191954;28;20070;-72
2022/08/06 10:55:15;;;;;;;5.50;3.28;;;;;;;;;;6191310;28;20071;-70
2022/08/06 10:58:17;;;;;;;4.50;3.65;;;;;;;;;;6189933;28;20050;-70
2022/08/06 11:01:29;;;;;;;6.20;3.55;;;;;;;;;;6191014;28;20108;-70
2022/08/06 11:04:42;;;;;;;5.82;3.20;;;;;;;;;;6184691;28;20043;-70
2022/08/06 11:08:11;;;;;;;5.18;3.40;;;;;;;;;;6182236;28;20148;-70
2022/08/06 11:11:25;;;;;;;4.25;3.30;;;;;;;;;;6178336;28;20070;-68
2022/08/06 11:14:27;;;;;;;4.22;3.05;;;;;;;;;;6183038;28;20062;-70
2022/08/06 11:17:42;;;;;;;3.28;2.97;;;;;;;;;;6182441;28;20042;-70
2022/08/06 11:20:45;;;;;;;8.30;3.30;;;;;;;;;;6180146;28;20090;-70
2022/08/06 11:23:47;;;;;;;3.58;3.28;;;;;;;;;;6182338;28;20353;-70
2022/08/06 11:26:50;;;;;;;5.03;3.10;;;;;;;;;;6181213;28;20055;-70
2022/08/06 11:30:10;;;;;;;3.58;3.22;;;;;;;;;;6181077;28;20401;-71
2022/08/06 11:33:13;;;;;;;3.50;3.20;;;;;;;;;;6183217;28;20077;-68
2022/08/06 11:36:25;;;;;;;3.47;3.17;;;;;;;;;;6182474;28;20054;-72
2022/08/06 11:39:27;;;;;;;5.97;3.38;;;;;;;;;;6182189;28;20104;-72
2022/08/06 11:42:44;;;;;;;4.28;3.60;;;;;;;;;;6182757;28;20396;-70
2022/08/06 11:46:20;;;;;;;3.90;2.88;;;;;;;;;;6181317;28;20054;-70
2022/08/06 11:49:24;;;;;;;4.07;3.28;;;;;;;;;;6181226;28;20049;-70
2022/08/06 11:52:42;;;;;;;3.45;2.97;;;;;;;;;;6182989;28;20054;-72
2022/08/06 11:56:04;;;;;;;3.95;3.13;;;;;;;;;;6179645;28;20044;-69
2022/08/06 11:59:16;;;;;;;3.40;3.00;;;;;;;;;;6179828;28;20085;-70
2022/08/06 12:02:38;;;;;;;5.55;3.20;;;;;;;;;;6182786;28;20290;-69
2022/08/06 12:05:44;;;;;;;4.38;2.95;;;;;;;;;;6180852;28;20106;-70
2022/08/06 12:09:06;;;;;;;3.30;3.00;;;;;;;;;;6182352;28;20049;-71
2022/08/06 12:12:37;;;;;;;5.07;2.97;;;;;;;;;;6179436;28;20349;-70
2022/08/06 12:15:41;;;;;;;3.97;2.92;;;;;;;;;;6182739;28;20073;-70
2022/08/06 12:18:42;;;;;;;4.38;2.78;;;;;;;;;;6181146;28;20087;-70
2022/08/06 12:21:44;;;;;;;4.85;2.88;;;;;;;;;;6181074;28;20046;-70
2022/08/06 12:24:46;;;;;;;5.10;2.80;;;;;;;;;;6182909;28;20341;-70
2022/08/06 12:27:48;;;;;;;2.80;2.60;;;;;;;;;;6182314;28;20061;-70
2022/08/06 12:30:53;;;;;;;3.75;2.40;;;;;;;;;;6181962;28;20542;-70
2022/08/06 12:33:54;;;;;;;3.53;2.60;;;;;;;;;;6180952;28;20241;-70
2022/08/06 12:36:58;;;;;;;2.85;2.65;;;;;;;;;;6182629;28;20057;-70
2022/08/06 12:43:20;;;;;;;3.60;2.83;;;;;;;;;;6181199;28;20043;-70
2022/08/06 12:46:24;;;;;;;2.58;2.38;;;;;;;;;;6181186;28;20066;-69
2022/08/06 12:49:31;;;;;;;2.75;2.35;;;;;;;;;;6180291;28;20245;-70
2022/08/06 12:52:32;;;;;;;2.60;2.40;;;;;;;;;;6179056;28;20272;-71
2022/08/06 12:55:36;;;;;;;3.13;2.40;;;;;;;;;;6180242;28;20262;-70
2022/08/06 12:58:38;;;;;;;2.45;2.22;;;;;;;;;;6183291;28;20046;-70
2022/08/06 13:01:44;;;;;;;3.90;2.78;;;;;;;;;;6181021;28;20053;-71
2022/08/06 13:04:49;;;;;;;2.67;2.30;;;;;;;;;;6184468;28;20301;-70
2022/08/06 13:07:50;;;;;;;3.65;3.00;;;;;;;;;;6179167;28;20101;-69
2022/08/06 13:10:53;;;;;;;3.75;2.58;;;;;;;;;;6180905;28;20047;-70
2022/08/06 13:13:55;;;;;;;2.60;2.40;;;;;;;;;;6178256;28;20097;-70
2022/08/06 13:16:58;;;;;;;2.85;2.63;;;;;;;;;;6181567;28;20046;-69
2022/08/06 13:20:00;;;;;;;2.60;2.40;;;;;;;;;;6178187;28;20106;-70
2022/08/06 13:23:01;;;;;;;3.05;2.40;;;;;;;;;;6180122;28;20058;-69
2022/08/06 13:26:14;;;;;;;3.97;2.78;;;;;;;;;;6179531;28;20042;-69
2022/08/06 13:29:18;;;;;;;2.80;2.60;;;;;;;;;;6182190;28;20065;-69
2022/08/06 13:32:25;;;;;;;3.05;2.60;;;;;;;;;;6184296;28;20065;-69
2022/08/06 13:35:27;;;;;;;2.47;2.28;;;;;;;;;;6187358;28;20896;-67
2022/08/06 13:38:30;;;;;;;3.90;2.10;;;;;;;;;;6183757;28;20097;-69
2022/08/06 13:41:32;;;;;;;3.15;2.30;;;;;;;;;;6183496;28;20050;-71
2022/08/06 13:44:37;;;;;;;2.60;2.40;;;;;;;;;;6185613;28;20047;-70
2022/08/06 13:47:40;;;;;;;2.95;2.25;;;;;;;;;;6183855;28;20058;-69
2022/08/06 13:50:43;;;;;;;2.35;2.15;;;;;;;;;;6184936;28;20082;-69
2022/08/06 13:53:45;;;;;;;2.40;2.20;;;;;;;;;;6182307;28;20051;-69
2022/08/06 13:56:48;;;;;;;3.70;2.50;;;;;;;;;;6183703;28;20053;-69
2022/08/06 13:59:50;;;;;;;3.38;2.50;;;;;;;;;;6184537;28;20057;-71
2022/08/06 14:02:53;;;;;;;3.40;2.55;;;;;;;;;;6184202;28;20050;-69
2022/08/06 14:05:55;;;;;;;2.78;2.47;;;;;;;;;;6181310;28;20062;-72
2022/08/06 14:08:57;;;;;;;2.50;2.30;;;;;;;;;;6185196;28;20334;-69
2022/08/06 14:12:00;;;;;;;2.58;2.22;;;;;;;;;;6182781;28;20105;-70
2022/08/06 14:15:02;;;;;;;2.70;2.45;;;;;;;;;;6185122;28;20245;-69
2022/08/06 14:18:05;;;;;;;2.58;2.38;;;;;;;;;;6188519;28;20106;-69
2022/08/06 14:21:07;;;;;;;3.90;2.42;;;;;;;;;;6182360;28;20277;-72
2022/08/06 14:24:08;;;;;;;5.13;2.90;;;;;;;;;;6184775;28;20050;-69
2022/08/06 14:27:11;;;;;;;4.00;2.53;;;;;;;;;;6182497;28;20345;-69
2022/08/06 14:30:13;;;;;;;3.08;2.75;;;;;;;;;;6184357;28;20051;-69
2022/08/06 14:33:18;;;;;;;6.32;3.00;;;;;;;;;;6182336;28;20058;-69
2022/08/06 14:36:19;;;;;;;11.48;2.72;;;;;;;;;;6188885;28;20054;-69
2022/08/06 14:39:21;;;;;;;4.45;2.38;;;;;;;;;;6184763;28;20097;-69
2022/08/06 14:45:38;;;;;;;2.92;2.30;;;;;;;;;;6139618;28;20050;-69
2022/08/06 14:48:41;;;;;;;4.07;2.10;;;;;;;;;;6183219;28;20360;-69
2022/08/06 14:51:43;;;;;;;2.75;1.85;;;;;;;;;;6182771;28;20222;-69
2022/08/06 14:54:45;;;;;;;2.20;2.00;;;;;;;;;;6182737;28;20061;-68
2022/08/06 14:57:46;;;;;;;2.03;1.73;;;;;;;;;;6182347;28;20334;-69
2022/08/06 15:00:51;;;;;;;4.00;1.90;;;;;;;;;;6184158;28;20054;-69
2022/08/06 15:03:54;;;;;;;4.22;1.83;;;;;;;;;;6183157;28;20057;-69
2022/08/06 15:06:56;;;;;;;2.83;1.75;;;;;;;;;;6184566;28;20762;-69
2022/08/06 15:09:57;;;;;;;5.13;1.83;;;;;;;;;;6181982;28;20061;-69
2022/08/06 15:12:59;;;;;;;;;;;;;;;;;;6185678;28;20046;-69
2022/08/06 15:16:00;;;;;;;3.17;1.60;;;;;;;;;;6182174;28;19918;-68
2022/08/06 15:19:03;;;;;;;3.35;1.60;;;;;;;;;;6182471;28;20071;-69
2022/08/06 15:22:05;;;;;;;5.18;1.67;;;;;;;;;;6182408;28;20317;-70
2022/08/06 15:25:08;;;;;;;;;;;;;;;;;;6183876;28;20360;-69
2022/08/06 15:28:09;;;;;;;2.38;1.65;;;;;;;;;;6186327;28;20197;-68
2022/08/06 15:31:11;;;;;;;;;;;;;;;;;;6182792;28;20081;-69
2022/08/06 15:34:14;;;;;;;1.60;1.45;;;;;;;;;;6183496;28;19918;-69
2022/08/06 15:37:16;;;;;;;2.90;1.73;;;;;;;;;;6184118;28;20054;-68
2022/08/06 15:40:18;;;;;;;3.15;1.85;;;;;;;;;;6181764;28;20054;-68
2022/08/06 15:43:20;;;;;;;3.42;1.88;;;;;;;;;;6181973;28;20245;-69
2022/08/06 15:46:21;;;;;;;8.38;2.95;;;;;;;;;;6181611;28;20050;-69
2022/08/06 15:49:24;;;;;;;4.22;1.98;;;;;;;;;;6182376;28;20236;-69
2022/08/06 15:52:26;;;;;;;4.47;2.20;;;;;;;;;;6181219;28;20055;-69
2022/08/06 15:55:28;;;;;;;5.13;2.20;;;;;;;;;;6180137;28;20334;-68
2022/08/06 15:58:29;;;;;;;;;;;;;;;;;;6182925;28;20118;-68
2022/08/06 16:01:32;;;;;;;2.90;2.00;;;;;;;;;;6181270;28;19926;-69
2022/08/06 16:04:35;;;;;;;4.82;2.35;;;;;;;;;;6181974;28;20245;-68
2022/08/06 16:07:38;;;;;;;3.33;2.50;;;;;;;;;;6181754;28;20062;-68
2022/08/06 16:10:42;;;;;;;6.32;2.42;;;;;;;;;;6183418;28;20046;-69
2022/08/06 16:13:44;;;;;;;3.88;2.50;;;;;;;;;;6184184;28;20046;-69
2022/08/06 16:16:45;;;;;;;4.07;3.10;;;;;;;;;;6181883;28;20054;-68
2022/08/06 16:19:49;;;;;;;3.25;2.38;;;;;;;;;;6180034;28;20051;-69
2022/08/06 16:22:51;;;;;;;4.00;2.35;;;;;;;;;;6182431;28;20077;-68
2022/08/06 16:25:52;;;;;;;4.15;2.70;;;;;;;;;;6178531;28;20054;-68
2022/08/06 16:28:54;;;;;;;2.70;2.50;;;;;;;;;;6183160;28;20293;-69
2022/08/06 16:31:56;;;;;;;5.32;2.53;;;;;;;;;;6183093;28;20361;-69
2022/08/06 16:34:59;;;;;;;3.20;2.40;;;;;;;;;;6180875;28;20059;-71
2022/08/06 16:38:01;;;;;;;3.65;2.45;;;;;;;;;;6182046;28;20377;-69
2022/08/06 16:41:02;;;;;;;3.20;2.20;;;;;;;;;;6179590;28;20047;-69
2022/08/06 16:44:04;;;;;;;12.32;2.90;;;;;;;;;;6181500;28;20064;-68
2022/08/06 16:47:06;;;;;;;6.72;2.22;;;;;;;;;;6180901;28;20097;-68
2022/08/06 16:50:11;;;;;;;4.63;2.20;;;;;;;;;;6180137;28;20070;-68
2022/08/06 16:53:13;;;;;;;3.83;2.30;;;;;;;;;;6179591;28;20058;-68
2022/08/06 16:56:15;;;;;;;5.28;2.40;;;;;;;;;;6179110;28;20058;-72
2022/08/06 16:59:16;;;;;;;2.83;2.40;;;;;;;;;;6179508;28;20057;-70
2022/08/06 17:05:39;;;;;;;3.38;2.28;;;;;;;;;;6182527;28;22256;-70
2022/08/06 17:08:41;;;;;;;5.72;2.30;;;;;;;;;;6185031;28;20075;-68
2022/08/06 17:11:43;;;;;;;3.42;2.53;;;;;;;;;;6184713;28;20623;-69
2022/08/06 17:14:44;;;;;;;3.53;2.22;;;;;;;;;;6186319;28;20069;-68
2022/08/06 17:17:46;;;;;;;3.63;2.45;;;;;;;;;;6185042;28;20054;-68
2022/08/06 17:20:49;;;;;;;;;;;;;;;;;;6184863;28;20042;-69
2022/08/06 17:23:51;;;;;;;5.10;2.47;;;;;;;;;;6185174;28;20219;-68
2022/08/06 17:26:53;;;;;;;6.68;2.47;;;;;;;;;;6184778;28;20051;-69
2022/08/06 17:29:54;;;;;;;4.80;2.55;;;;;;;;;;6184477;28;20274;-68
2022/08/06 17:32:56;;;;;;;6.47;2.30;;;;;;;;;;6186782;28;20051;-68
2022/08/06 17:35:59;;;;;;;4.50;2.20;;;;;;;;;;6186498;28;20058;-69
2022/08/06 17:39:01;;;;;;;2.42;2.05;;;;;;;;;;6185427;28;20061;-68
2022/08/06 17:42:03;;;;;;;5.97;2.55;;;;;;;;;;6184378;28;20058;-68
2022/08/06 17:45:06;;;;;;;3.47;2.17;;;;;;;;;;6184631;28;20080;-69
2022/08/06 17:48:07;;;;;;;2.53;2.10;;;;;;;;;;6182666;28;20107;-69
2022/08/06 17:51:10;;;;;;;4.32;2.00;;;;;;;;;;6187276;28;21347;-68
2022/08/06 17:54:12;;;;;;;3.25;1.90;;;;;;;;;;6185231;28;20054;-68
2022/08/06 17:57:14;;;;;;;4.32;2.03;;;;;;;;;;6184498;28;20055;-68
2022/08/06 18:00:16;;;;;;;3.78;2.25;;;;;;;;;;6183692;28;20261;-69
2022/08/06 18:03:18;;;;;;;4.68;2.17;;;;;;;;;;6184059;28;20122;-69
2022/08/06 18:06:21;;;;;;;6.30;2.22;;;;;;;;;;6185432;28;20070;-68
2022/08/06 18:09:23;;;;;;;4.53;2.33;;;;;;;;;;6184013;28;20384;-68
2022/08/06 18:12:24;;;;;;;5.03;2.20;;;;;;;;;;6185432;28;20094;-67
2022/08/06 18:15:27;;;;;;;4.63;1.95;;;;;;;;;;6184754;28;20058;-68
2022/08/06 18:18:28;;;;;;;;;;;;;;;;;;6185071;28;20330;-68
2022/08/06 18:21:31;;;;;;;4.18;2.30;;;;;;;;;;6184819;28;19949;-69
2022/08/06 18:24:33;;;;;;;4.80;1.90;;;;;;;;;;6184122;28;20325;-69
2022/08/06 18:27:35;;;;;;;2.55;2.15;;;;;;;;;;6183050;28;20121;-69
2022/08/06 18:30:37;;;;;;;2.63;1.83;;;;;;;;;;6184065;28;20050;-68
2022/08/06 18:33:40;;;;;;;2.28;1.90;;;;;;;;;;6183564;28;20078;-71
2022/08/06 18:36:43;;;;;;;;;;;;;;;;;;6185887;28;20058;-68
2022/08/06 18:39:44;;;;;;;3.55;2.10;;;;;;;;;;6180601;28;19918;-68
2022/08/06 18:42:46;;;;;;;2.67;2.15;;;;;;;;;;6181729;28;20054;-68